Inaja Park (222, 626) Station Data

Red Flag Warning: No
Fire Weather Zone: 258
SDGE Region: North East
Lat/Lon: 33.095/-116.666

Observations

Time Wind Speed/Gust Temp(F) RH Fuel Moist Fuel Temp(F) Dewpt(F) Tmax(F) Tmin(F) Accum Precip 10-min Precip SL Press(mb)
4/26 2:40am 40 7 G 9 46° 80% - - 40° 49.3° 45.4° - - -
4/26 2:30am 41 8 G 10 47° 77% - - 40° 49.3° 45.8° - - -
4/26 2:20am 49 8 G 10 48° 74% - - 40° 49.3° 45.8° - - -
4/26 2:10am 44 8 G 10 48° 75% - - 40° 48.6° 45.8° - - -
4/26 2:00am 36 8 G 10 47° 77% - - 41° 48.3° 45.8° - - -
4/26 1:50am 30 8 G 10 47° 80% - - 41° 48.2° 45.8° - - -
4/26 1:40am 29 7 G 10 47° 82% - - 41° 48.2° 45.8° - - -
4/26 1:30am 51 7 G 10 47° 83% - - 42° 48.2° 45.8° - - -
4/26 1:20am 41 7 G 9 47° 84% - - 42° 48.2° 46° - - -
4/26 1:10am 47 8 G 10 47° 83% - - 42° 48.2° 46.4° - - -
4/26 1:00am 38 8 G 9 47° 84% - - 43° 48.2° 46.4° - - -
4/26 12:50am 44 8 G 10 47° 85% - - 43° 48.2° 46.4° - - -
4/26 12:40am 29 7 G 9 47° 85% - - 43° 48.2° 46.4° - - -
4/26 12:30am 36 6 G 8 47° 87% - - 43° 48.2° 46.4° - - -
4/26 12:20am 45 7 G 9 47° 87% - - 44° 48.2° 46.6° - - -
4/26 12:10am 39 8 G 9 48° 87% - - 44° 48.2° 46.8° - - -
4/26 12:00am 61 6 G 12 48° 87% - - 44° 60.2° 45.7° - - -
4/25 11:50pm 57 6 G 10 47° 89% - - 44° 60.2° 45.7° - - -
4/25 11:40pm 65 6 G 11 48° 88% - - 44° 60.2° 45.7° - - -
4/25 11:30pm 77 9 G 12 48° 89% - - 45° 60.2° 45.7° - - -
4/25 11:20pm 65 6 G 11 47° 92% - - 45° 60.2° 45.7° - - -
4/25 11:10pm 58 6 G 9 47° 92% - - 45° 60.2° 45.7° - - -
4/25 11:00pm 46 6 G 8 47° 92% - - 45° 60.2° 45.7° - - -
4/25 10:50pm 44 6 G 7 47° 92% - - 45° 60.2° 45.7° - - -
4/25 10:40pm 41 6 G 8 47° 92% - - 45° 60.2° 45.7° - - -
4/25 10:30pm 48 5 G 7 47° 93% - - 45° 60.2° 45.7° - - -
4/25 10:20pm 51 5 G 7 47° 92% - - 45° 60.2° 45.7° - - -
4/25 10:10pm 53 5 G 7 48° 92% - - 46° 60.2° 45.7° - - -
4/25 10:00pm 51 4 G 5 48° 92% - - 46° 60.2° 45.7° - - -
4/25 9:50pm 46 4 G 6 48° 92% - - 46° 60.2° 45.7° - - -
4/25 9:40pm 53 5 G 7 48° 92% - - 46° 60.2° 45.7° - - -
4/25 9:30pm 47 5 G 6 48° 92% - - 46° 60.2° 45.7° - - -
4/25 9:20pm 50 4 G 5 48° 91% - - 46° 60.2° 45.7° - - -
4/25 9:10pm 43 4 G 6 49° 91% - - 46° 60.2° 45.7° - - -
4/25 9:00pm 32 5 G 6 49° 90% - - 46° 60.2° 45.7° - - -
4/25 8:50pm 40 3 G 5 50° 90% - - 47° 60.2° 45.7° - - -
4/25 8:40pm 55 1 G 2 50° 89% - - 47° 60.2° 45.7° - - -
4/25 8:30pm 21 2 G 3 51° 88% - - 47° 60.2° 45.7° - - -
4/25 8:20pm 288 2 G 4 51° 89% - - 47° 60.2° 45.7° - - -
4/25 8:10pm 304 2 G 3 51° 88% - - 48° 60.2° 45.7° - - -
4/25 8:00pm 317 2 G 3 51° 87% - - 48° 60.2° 45.7° - - -
4/25 7:50pm 270 2 G 3 52° 86% - - 48° 60.2° 45.7° - - -
4/25 7:40pm 250 1 G 4 52° 86% - - 48° 60.2° 45.7° - - -
4/25 7:30pm 204 4 G 8 52° 85% - - 48° 60.2° 45.7° - - -
4/25 7:20pm 207 5 G 8 52° 84% - - 48° 60.2° 45.7° - - -
4/25 7:10pm 218 5 G 10 53° 83% - - 48° 60.2° 45.7° - - -
4/25 7:00pm 224 5 G 10 53° 82% - - 48° 60.2° 45.7° - - -
4/25 6:50pm 212 7 G 12 54° 81% - - 48° 60.2° 45.7° - - -
4/25 6:40pm 224 6 G 11 54° 81% - - 48° 60.2° 45.7° - - -
4/25 6:30pm 262 5 G 13 54° 80% - - 49° 60.2° 45.7° - - -
4/25 6:20pm 224 5 G 10 55° 80% - - 49° 60.2° 45.7° - - -
4/25 6:10pm 207 8 G 12 55° 80% - - 48° 60.2° 45.7° - - -
4/25 6:00pm 216 6 G 10 55° 79% - - 49° 60.2° 45.7° - - -
4/25 5:50pm 313 7 G 14 55° 79% - - 48° 60.2° 45.7° - - -
4/25 5:40pm 244 6 G 12 55° 77% - - 48° 60.2° 45.7° - - -
4/25 5:30pm 227 7 G 12 56° 76% - - 48° 60.2° 45.7° - - -
4/25 5:20pm 210 9 G 13 56° 75% - - 48° 60.2° 45.7° - - -
4/25 5:10pm 203 10 G 16 56° 74% - - 48° 60.2° 45.7° - - -
4/25 5:00pm 222 6 G 14 57° 72% - - 48° 60.2° 45.7° - - -
4/25 4:50pm 280 5 G 14 57° 72% - - 48° 60.2° 45.7° - - -
4/25 4:40pm 211 7 G 14 57° 73% - - 48° 60.2° 45.7° - - -
4/25 4:30pm 221 6 G 15 56° 74% - - 48° 60.2° 45.7° - - -
4/25 4:20pm 253 4 G 10 57° 71% - - 48° 60.2° 45.7° - - -
4/25 4:10pm 217 8 G 15 57° 72% - - 48° 60.2° 45.7° - - -
4/25 4:00pm 219 8 G 13 57° 72% - - 48° 60.2° 45.7° - - -
4/25 3:50pm 204 10 G 16 56° 75% - - 48° 60.2° 45.7° - - -
4/25 3:40pm 211 10 G 18 56° 76% - - 48° 60.2° 45.7° - - -
4/25 3:30pm 212 9 G 15 56° 74% - - 48° 60.2° 45.7° - - -
4/25 3:20pm 209 9 G 16 56° 73% - - 48° 60.2° 45.7° - - -
4/25 3:10pm 212 10 G 15 57° 71% - - 47° 60.2° 45.7° - - -
4/25 3:00pm 202 10 G 18 56° 71% - - 47° 60.2° 45.7° - - -
4/25 2:50pm 213 13 G 19 56° 72% - - 47° 60.2° 45.7° - - -
4/25 2:40pm 209 13 G 19 56° 72% - - 47° 60.2° 45.7° - - -
4/25 2:30pm 205 13 G 21 56° 71% - - 47° 60.2° 45.7° - - -
4/25 2:20pm 207 14 G 22 57° 68% - - 47° 60.2° 45.7° - - -
4/25 2:10pm 222 8 G 18 59° 63% - - 46° 60.2° 45.7° - - -
4/25 2:00pm 271 8 G 17 58° 63% - - 46° 60.2° 45.7° - - -
4/25 1:50pm 215 9 G 17 59° 63% - - 46° 60.2° 45.7° - - -
4/25 1:40pm 237 7 G 15 59° 62% - - 46° 60.2° 45.7° - - -
4/25 1:30pm 252 7 G 15 58° 63% - - 46° 60.2° 45.7° - - -
4/25 1:20pm 262 6 G 15 59° 62% - - 46° 60.2° 45.7° - - -
4/25 1:10pm 228 7 G 16 58° 64% - - 46° 59.6° 45.7° - - -
4/25 1:00pm 209 10 G 18 58° 64% - - 46° 59° 45.7° - - -
4/25 12:50pm 234 6 G 15 58° 65% - - 46° 59° 45.7° - - -
4/25 12:40pm 220 9 G 18 56° 67% - - 45° 57.7° 45.7° - - -
4/25 12:30pm 218 9 G 19 57° 66% - - 45° 57.7° 45.7° - - -
4/25 12:20pm 228 8 G 18 56° 67% - - 46° 57.1° 45.7° - - -
4/25 12:10pm 222 7 G 15 55° 70% - - 46° 56° 45.7° - - -
4/25 12:00pm 228 7 G 14 54° 71% - - 45° 55.7° 45.7° - - -
4/25 11:50am 211 9 G 16 54° 74% - - 46° 55.4° 45.7° - - -
4/25 11:40am 255 5 G 13 54° 70% - - 45° 55.3° 45.7° - - -
4/25 11:30am 255 4 G 11 55° 71% - - 45° 55.3° 45.7° - - -
4/25 11:20am 281 5 G 11 54° 73% - - 45° 54.6° 45.7° - - -
4/25 11:10am 218 8 G 15 52° 78% - - 46° 53.1° 45.7° - - -
4/25 11:00am 210 8 G 14 52° 80% - - 46° 52.8° 45.7° - - -
4/25 10:50am 206 9 G 14 51° 80% - - 46° 52.8° 45.7° - - -
4/25 10:40am 223 6 G 12 52° 81% - - 46° 52.8° 45.7° - - -
4/25 10:30am 214 8 G 14 50° 86% - - 46° 51.2° 45.7° - - -
4/25 10:20am 201 8 G 14 50° 89% - - 47° 50.3° 45.7° - - -
4/25 10:10am 195 10 G 17 49° 95% - - 47° 49.4° 45.7° - - -
4/25 10:00am 206 8 G 14 48° 98% - - 48° 49.3° 45.7° - - -
4/25 9:50am 196 12 G 17 48° 99% - - 48° 48.8° 45.7° - - -
4/25 9:40am 198 11 G 17 48° 99% - - 48° 48.4° 45.7° - - -
4/25 9:30am 198 12 G 18 48° 100% - - 47° 48.1° 45.7° - - -
4/25 9:20am 205 13 G 18 47° 100% - - 47° 47.9° 45.7° - - -
4/25 9:10am 208 11 G 16 47° 100% - - 47° 47.8° 45.7° - - -
4/25 9:00am 213 12 G 16 47° 100% - - 47° 47.8° 45.7° - - -
4/25 8:50am 219 11 G 15 47° 100% - - 47° 47.8° 45.7° - - -
4/25 8:40am 220 9 G 13 47° 100% - - 47° 47.8° 45.7° - - -
4/25 8:30am 213 9 G 14 47° 100% - - 47° 47.6° 45.7° - - -
4/25 8:20am 221 10 G 14 47° 100% - - 47° 47.6° 45.7° - - -
4/25 8:10am 223 11 G 16 47° 100% - - 47° 47.5° 45.7° - - -
4/25 8:00am 215 12 G 17 47° 100% - - 47° 47.3° 45.7° - - -
4/25 7:50am 216 13 G 19 47° 100% - - 47° 47.3° 45.7° - - -
4/25 7:40am 215 13 G 19 47° 100% - - 47° 47.3° 45.7° - - -
4/25 7:30am 218 12 G 17 47° 100% - - 47° 47.3° 45.7° - - -
4/25 7:20am 206 12 G 17 47° 100% - - 47° 47.3° 45.7° - - -
4/25 7:10am 201 12 G 18 47° 100% - - 47° 47.3° 45.7° - - -
4/25 7:00am 218 12 G 17 47° 100% - - 46° 47.3° 45.7° - - -
4/25 6:50am 203 14 G 18 47° 100% - - 46° 47.3° 45.7° - - -
4/25 6:40am 208 14 G 20 47° 100% - - 46° 47.3° 45.7° - - -
4/25 6:30am 210 14 G 19 47° 100% - - 46° 47.3° 45.7° - - -
4/25 6:20am 215 14 G 19 46° 100% - - 46° 47.3° 45.7° - - -
4/25 6:10am 217 14 G 20 46° 100% - - 46° 47.3° 45.7° - - -
4/25 6:00am 214 15 G 19 46° 100% - - 46° 47.3° 45.7° - - -
4/25 5:50am 214 15 G 20 46° 100% - - 46° 47.3° 45.7° - - -
4/25 5:40am 214 15 G 19 46° 100% - - 46° 47.3° 45.7° - - -
4/25 5:30am 211 15 G 20 46° 100% - - 46° 47.3° 45.7° - - -
4/25 5:20am 211 15 G 20 46° 100% - - 46° 47.3° 45.7° - - -
4/25 5:10am 214 16 G 20 46° 100% - - 46° 47.3° 45.7° - - -
4/25 5:00am 216 15 G 21 46° 100% - - 46° 47.3° 45.7° - - -
4/25 4:50am 210 16 G 23 46° 100% - - 46° 47.3° 45.7° - - -
4/25 4:40am 211 17 G 22 46° 100% - - 46° 47.3° 45.7° - - -
4/25 4:30am 216 16 G 22 46° 100% - - 46° 47.3° 45.7° - - -
4/25 4:20am 213 17 G 21 47° 100% - - 46° 47.3° 45.7° - - -
4/25 4:10am 216 18 G 28 47° 100% - - 46° 47.3° 45.7° - - -
4/25 4:00am 217 18 G 25 47° 100% - - 47° 47.3° 45.7° - - -
4/25 3:50am 212 17 G 23 47° 100% - - 47° 47.3° 45.7° - - -
4/25 3:40am 214 16 G 23 47° 100% - - 47° 47.2° 45.7° - - -
4/25 3:30am 218 15 G 21 47° 100% - - 47° 47.2° 45.7° - - -
4/25 3:20am 214 16 G 22 47° 99% - - 47° 47.2° 45.7° - - -
4/25 3:10am 224 14 G 21 47° 99% - - 47° 47.2° 45.7° - - -
4/25 3:00am 216 15 G 21 47° 99% - - 46° 47.2° 45.7° - - -
4/25 2:50am 225 16 G 25 47° 99% - - 46° 47.2° 45.7° - - -
4/25 2:40am 216 16 G 20 46° 99% - - 46° 47.2° 45.7° - - -
4/25 2:30am 214 17 G 23 46° 99% - - 46° 47.2° 45.7° - - -
4/25 2:20am 213 19 G 25 46° 99% - - 46° 47.2° 45.7° - - -
4/25 2:10am 213 20 G 25 46° 99% - - 46° 47.2° 45.7° - - -
4/25 2:00am 214 21 G 27 46° 99% - - 46° 47.2° 45.7° - - -
4/25 1:50am 214 22 G 28 46° 99% - - 46° 47.2° 45.7° - - -
4/25 1:40am 215 22 G 30 46° 99% - - 46° 47.2° 45.7° - - -
4/25 1:30am 215 19 G 26 46° 99% - - 46° 47.2° 45.8° - - -
4/25 1:20am 218 13 G 21 47° 99% - - 46° 47.2° 45.8° - - -
4/25 1:10am 216 13 G 19 46° 99% - - 46° 47.2° 45.8° - - -
4/25 1:00am 224 11 G 16 46° 99% - - 46° 47.2° 45.8° - - -
4/25 12:50am 218 12 G 19 46° 99% - - 46° 47.2° 45.8° - - -
4/25 12:40am 213 15 G 20 46° 99% - - 46° 47.2° 46° - - -
4/25 12:30am 211 14 G 19 46° 99% - - 46° 47.2° 46° - - -
4/25 12:20am 214 15 G 21 46° 99% - - 46° 47.2° 46° - - -
4/25 12:10am 214 15 G 20 47° 99% - - 46° 47.2° 46.1° - - -
4/25 12:00am 212 17 G 24 47° 99% - - 47° 61.8° 41° - - -
4/24 11:50pm 214 16 G 20 47° 99% - - 47° 61.8° 41° - - -
4/24 11:40pm 219 11 G 17 47° 99% - - 47° 61.8° 41° - - -
4/24 11:30pm 225 11 G 16 48° 99% - - 47° 61.8° 41° - - -
4/24 11:20pm 224 12 G 17 48° 99% - - 47° 61.8° 41° - - -
4/24 11:10pm 216 13 G 20 48° 99% - - 47° 61.8° 41° - - -
4/24 11:00pm 218 12 G 18 48° 99% - - 48° 61.8° 41° - - -
4/24 10:50pm 217 12 G 17 48° 99% - - 48° 61.8° 41° - - -
4/24 10:40pm 215 14 G 20 48° 99% - - 48° 61.8° 41° - - -
4/24 10:30pm 217 14 G 18 48° 98% - - 48° 61.8° 41° - - -
4/24 10:20pm 211 12 G 17 49° 98% - - 48° 61.8° 41° - - -
4/24 10:10pm 211 11 G 16 49° 97% - - 48° 61.8° 41° - - -
4/24 10:00pm 226 9 G 13 49° 95% - - 47° 61.8° 41° - - -
4/24 9:50pm 221 7 G 11 49° 95% - - 47° 61.8° 41° - - -
4/24 9:40pm 218 8 G 13 49° 94% - - 47° 61.8° 41° - - -
4/24 9:30pm 207 9 G 16 49° 94% - - 47° 61.8° 41° - - -
4/24 9:20pm 212 9 G 14 49° 94% - - 48° 61.8° 41° - - -
4/24 9:10pm 214 8 G 12 49° 94% - - 48° 61.8° 41° - - -
4/24 9:00pm 210 8 G 14 50° 93% - - 48° 61.8° 41° - - -
4/24 8:50pm 213 9 G 14 50° 95% - - 48° 61.8° 41° - - -
4/24 8:40pm 217 10 G 17 50° 96% - - 49° 61.8° 41° - - -
4/24 8:30pm 219 9 G 13 50° 95% - - 48° 61.8° 41° - - -
4/24 8:20pm 214 9 G 15 50° 94% - - 48° 61.8° 41° - - -
4/24 8:10pm 219 9 G 18 50° 95% - - 49° 61.8° 41° - - -
4/24 8:00pm 214 12 G 18 50° 95% - - 49° 61.8° 41° - - -
4/24 7:50pm 216 12 G 20 51° 94% - - 49° 61.8° 41° - - -
4/24 7:40pm 215 14 G 19 51° 93% - - 49° 61.8° 41° - - -
4/24 7:30pm 217 13 G 20 51° 92% - - 49° 61.8° 41° - - -
4/24 7:20pm 215 13 G 18 52° 91% - - 49° 61.8° 41° - - -
4/24 7:10pm 219 13 G 19 52° 89% - - 49° 61.8° 41° - - -
4/24 7:00pm 215 14 G 21 52° 88% - - 49° 61.8° 41° - - -
4/24 6:50pm 214 13 G 19 53° 87% - - 49° 61.8° 41° - - -
4/24 6:40pm 211 11 G 17 53° 86% - - 49° 61.8° 41° - - -
4/24 6:30pm 213 15 G 20 53° 85% - - 49° 61.8° 41° - - -
4/24 6:20pm 211 12 G 17 54° 83% - - 49° 61.8° 41° - - -
4/24 6:10pm 205 14 G 21 54° 82% - - 49° 61.8° 41° - - -
4/24 6:00pm 209 16 G 21 54° 81% - - 49° 61.8° 41° - - -